Time;durP1;ratioP1;P1;durP2;ratioP2;P2;SDS_P1;SDS_P2;PMS_P1;PMS_P2;Temp;Humidity;BMP_temperature;BMP_pressure;BME280_temperature;BME280_humidity;BME280_pressure;Samples;Min_cycle;Max_cycle;Signal;HPM_P1;HPM_P2
2023/11/18 00:02:24;;;;;;;100.40;43.53;;;5.80;99.90;;;;;;5091928;28;20397;-74
2023/11/18 00:04:50;;;;;;;115.28;45.42;;;5.80;99.90;;;;;;5091904;28;20445;-71
2023/11/18 00:07:15;;;;;;;110.40;47.03;;;5.80;99.90;;;;;;5091917;28;20386;-73
2023/11/18 00:09:45;;;;;;;124.95;47.10;;;5.80;99.90;;;;;;5091037;28;20444;-70
2023/11/18 00:12:11;;;;;;;128.13;47.33;;;5.90;99.90;;;;;;5090916;28;20375;-70
2023/11/18 00:14:37;;;;;;;107.68;45.55;;;5.90;99.90;;;;;;5090896;28;20382;-70
2023/11/18 00:17:04;;;;;;;112.32;46.53;;;6.00;99.90;;;;;;5090832;28;20548;-70
2023/11/18 00:19:30;;;;;;;110.28;43.38;;;6.00;99.90;;;;;;5090407;28;20892;-70
2023/11/18 00:21:55;;;;;;;107.60;43.23;;;5.90;99.90;;;;;;5091043;28;20401;-70
2023/11/18 00:24:21;;;;;;;108.55;43.00;;;6.00;99.90;;;;;;5091163;28;20393;-71
2023/11/18 00:26:47;;;;;;;103.55;41.42;;;6.00;99.90;;;;;;5091005;28;20465;-70
2023/11/18 00:29:12;;;;;;;104.82;41.20;;;6.00;99.90;;;;;;5090482;28;20382;-70
2023/11/18 00:31:38;;;;;;;107.53;41.17;;;6.00;99.90;;;;;;5090582;28;20468;-70
2023/11/18 00:34:03;;;;;;;113.38;43.90;;;6.00;99.90;;;;;;5090704;28;20812;-69
2023/11/18 00:36:29;;;;;;;109.30;42.28;;;6.10;99.90;;;;;;5090425;28;20429;-70
2023/11/18 00:38:54;;;;;;;104.47;42.03;;;6.00;99.90;;;;;;5090635;28;20406;-70
2023/11/18 00:41:21;;;;;;;116.30;43.90;;;6.10;99.90;;;;;;5090618;28;20513;-70
2023/11/18 00:43:47;;;;;;;100.80;40.90;;;6.20;99.90;;;;;;5091199;28;20378;-70
2023/11/18 00:46:12;;;;;;;107.73;42.73;;;6.20;99.90;;;;;;5091127;28;20439;-70
2023/11/18 00:48:38;;;;;;;96.03;40.73;;;6.20;99.90;;;;;;5090949;28;20787;-72
2023/11/18 00:51:06;;;;;;;101.57;40.92;;;6.20;99.90;;;;;;5091253;28;20389;-71
2023/11/18 00:53:31;;;;;;;103.63;41.50;;;6.20;99.90;;;;;;5091138;28;20372;-71
2023/11/18 00:55:57;;;;;;;98.83;41.20;;;6.20;99.90;;;;;;5091174;28;20736;-73
2023/11/18 00:58:22;;;;;;;94.03;41.77;;;6.10;99.90;;;;;;5090932;28;20398;-71
2023/11/18 01:00:48;;;;;;;91.28;40.70;;;6.20;99.90;;;;;;5090979;28;20389;-72
2023/11/18 01:03:14;;;;;;;89.90;40.78;;;6.20;99.90;;;;;;5090552;28;20370;-70
2023/11/18 01:05:39;;;;;;;89.30;39.53;;;6.10;99.90;;;;;;5093233;28;20886;-70
2023/11/18 01:08:05;;;;;;;92.03;38.85;;;6.10;99.90;;;;;;5094432;28;20382;-70
2023/11/18 01:10:31;;;;;;;83.72;39.45;;;6.10;99.40;;;;;;5093970;28;20397;-70
2023/11/18 01:12:57;;;;;;;78.63;38.63;;;6.10;98.90;;;;;;5094968;28;20492;-71
2023/11/18 01:15:23;;;;;;;78.80;38.20;;;6.20;98.70;;;;;;5094587;28;20866;-71
2023/11/18 01:17:49;;;;;;;74.45;36.67;;;6.20;96.10;;;;;;5094387;28;20513;-70
2023/11/18 01:20:20;;;;;;;72.53;35.67;;;6.20;98.40;;;;;;5094230;28;20444;-71
2023/11/18 01:22:47;;;;;;;80.15;34.75;;;6.20;97.90;;;;;;5093033;28;20370;-71
2023/11/18 01:25:12;;;;;;;71.13;35.50;;;6.10;96.10;;;;;;5094366;28;20378;-70
2023/11/18 01:27:38;;;;;;;69.47;35.13;;;6.10;95.40;;;;;;5094011;28;20472;-69
2023/11/18 01:30:04;;;;;;;62.87;33.63;;;6.10;93.20;;;;;;5093818;28;20386;-70
2023/11/18 01:32:30;;;;;;;71.80;36.30;;;6.00;91.90;;;;;;5093529;28;20791;-69
2023/11/18 01:34:56;;;;;;;64.03;32.63;;;6.00;94.20;;;;;;5094075;28;20390;-70
2023/11/18 01:37:23;;;;;;;64.20;33.27;;;6.00;92.90;;;;;;5093824;28;20439;-71
2023/11/18 01:39:49;;;;;;;63.15;33.00;;;6.00;92.70;;;;;;5093734;28;20386;-71
2023/11/18 01:42:15;;;;;;;69.10;35.80;;;5.90;91.40;;;;;;5093766;28;20925;-71
2023/11/18 01:44:40;;;;;;;68.47;36.80;;;6.00;91.80;;;;;;5093887;28;20895;-70
2023/11/18 01:47:10;;;;;;;69.70;36.17;;;5.90;92.80;;;;;;5093441;28;20447;-70
2023/11/18 01:49:39;;;;;;;67.77;35.60;;;5.90;94.60;;;;;;5093711;28;20494;-69
2023/11/18 01:52:07;;;;;;;68.40;36.40;;;5.90;93.70;;;;;;5093526;28;20398;-69
2023/11/18 01:54:34;;;;;;;61.90;33.33;;;5.80;90.80;;;;;;5093669;28;20390;-70
2023/11/18 01:57:03;;;;;;;62.65;32.47;;;5.80;92.60;;;;;;5093469;28;20398;-70
2023/11/18 01:59:29;;;;;;;64.85;35.28;;;5.80;93.50;;;;;;5095669;28;20383;-71
2023/11/18 02:01:59;;;;;;;67.80;36.10;;;5.70;92.30;;;;;;5094941;28;20374;-70
2023/11/18 02:04:25;;;;;;;66.53;35.50;;;5.70;91.30;;;;;;5094049;28;20375;-71
2023/11/18 02:06:51;;;;;;;72.63;35.37;;;5.60;90.60;;;;;;5093761;28;20409;-71
2023/11/18 02:09:19;;;;;;;65.20;34.85;;;5.50;92.80;;;;;;5093194;28;20384;-71
2023/11/18 02:12:30;;;;;;;65.80;34.03;;;5.60;94.80;;;;;;5105022;22;20579;-70
2023/11/18 02:14:57;;;;;;;65.20;33.38;;;5.50;93.90;;;;;;5087442;28;20477;-72
2023/11/18 02:17:25;;;;;;;66.57;34.72;;;5.50;93.90;;;;;;5093223;28;20498;-72
2023/11/18 02:19:56;;;;;;;66.78;34.20;;;5.50;96.30;;;;;;5108886;28;20382;-73
2023/11/18 02:22:23;;;;;;;68.70;34.58;;;5.50;96.50;;;;;;5093502;28;20380;-71
2023/11/18 02:24:50;;;;;;;64.97;34.58;;;5.60;93.50;;;;;;5093597;28;20937;-73
2023/11/18 02:27:16;;;;;;;71.68;35.65;;;5.60;94.60;;;;;;5091551;28;20755;-72
2023/11/18 02:29:45;;;;;;;65.07;34.38;;;5.70;94.90;;;;;;5092581;28;20389;-71
2023/11/18 02:32:37;;;;;;;62.80;33.33;;;5.70;92.70;;;;;;5107995;28;20905;-73
2023/11/18 02:35:10;;;;;;;61.85;33.70;;;5.60;91.30;;;;;;5092568;28;20403;-73
2023/11/18 02:37:41;;;;;;;67.45;34.53;;;5.60;91.20;;;;;;5108011;28;20780;-71
2023/11/18 02:40:14;;;;;;;62.33;33.70;;;5.50;94.00;;;;;;5092060;28;20380;-71
2023/11/18 02:42:41;;;;;;;59.83;33.17;;;5.50;93.40;;;;;;5092939;28;20406;-74
2023/11/18 02:45:12;;;;;;;60.70;32.97;;;5.40;94.10;;;;;;5092706;28;20376;-74
2023/11/18 02:47:38;;;;;;;55.03;31.13;;;5.40;93.60;;;;;;5093184;28;20389;-73
2023/11/18 02:50:10;;;;;;;58.80;32.30;;;5.40;94.00;;;;;;5093217;28;20709;-72
2023/11/18 02:52:39;;;;;;;62.38;31.95;;;5.40;94.20;;;;;;5090963;28;20389;-72
2023/11/18 02:55:07;;;;;;;62.63;33.07;;;5.40;95.10;;;;;;5091252;28;20410;-74
2023/11/18 02:57:33;;;;;;;58.65;32.28;;;5.40;94.10;;;;;;5088965;28;20479;-76
2023/11/18 03:00:00;;;;;;;62.60;32.20;;;5.40;94.70;;;;;;5103386;28;20393;-74
2023/11/18 03:02:30;;;;;;;59.67;31.63;;;5.40;95.20;;;;;;5103017;28;20394;-74
2023/11/18 03:04:59;;;;;;;59.03;32.58;;;5.50;94.00;;;;;;5088906;28;20477;-71
2023/11/18 03:07:26;;;;;;;55.43;30.93;;;5.40;92.70;;;;;;5071459;28;20758;-73
2023/11/18 03:09:59;;;;;;;57.22;31.65;;;5.40;93.30;;;;;;5073319;28;20395;-73
2023/11/18 03:12:28;;;;;;;58.70;32.15;;;5.50;92.30;;;;;;5074132;28;20455;-74
2023/11/18 03:14:54;;;;;;;52.72;30.05;;;5.50;92.00;;;;;;5073870;28;20388;-72
2023/11/18 03:17:20;;;;;;;54.17;30.07;;;5.50;91.50;;;;;;5073372;28;20703;-72
2023/11/18 03:19:45;;;;;;;56.30;30.75;;;5.40;91.90;;;;;;5076230;28;20413;-74
2023/11/18 03:22:13;;;;;;;51.70;31.10;;;5.40;93.30;;;;;;5072997;28;20449;-72
2023/11/18 03:24:38;;;;;;;58.95;33.00;;;5.40;93.70;;;;;;5071988;28;20376;-71
2023/11/18 03:27:04;;;;;;;53.70;29.93;;;5.40;93.80;;;;;;5070568;28;20431;-71
2023/11/18 03:29:30;;;;;;;48.30;28.07;;;5.50;91.90;;;;;;5070193;28;20444;-71
2023/11/18 03:31:55;;;;;;;52.10;30.93;;;5.50;89.80;;;;;;5071590;28;20386;-75
2023/11/18 03:34:21;;;;;;;50.10;29.53;;;5.60;90.60;;;;;;5071845;28;20454;-71
2023/11/18 03:36:47;;;;;;;55.35;30.23;;;5.60;87.20;;;;;;5075303;28;20468;-70
2023/11/18 03:39:14;;;;;;;51.70;31.38;;;5.60;87.80;;;;;;5072378;28;20384;-71
2023/11/18 03:41:40;;;;;;;48.72;28.77;;;5.70;90.20;;;;;;5073057;28;20383;-71
2023/11/18 03:44:05;;;;;;;45.33;27.80;;;5.70;86.40;;;;;;5073530;28;20380;-73
2023/11/18 03:46:34;;;;;;;48.13;27.52;;;5.70;85.00;;;;;;5072668;28;20392;-72
2023/11/18 03:49:01;;;;;;;47.92;27.50;;;5.60;83.90;;;;;;5071622;28;20463;-70
2023/11/18 03:51:28;;;;;;;43.92;26.60;;;5.60;84.60;;;;;;5070841;28;20380;-70
2023/11/18 03:53:53;;;;;;;46.53;27.92;;;5.60;84.10;;;;;;5069577;28;20383;-71
2023/11/18 03:56:19;;;;;;;49.92;28.65;;;5.50;84.20;;;;;;5070779;28;20949;-72
2023/11/18 03:58:47;;;;;;;44.53;26.98;;;5.50;85.40;;;;;;5070784;28;20457;-72
2023/11/18 04:01:26;;;;;;;45.05;26.52;;;5.50;85.80;;;;;;5070725;28;20422;-71
2023/11/18 04:03:52;;;;;;;47.17;27.73;;;5.40;86.20;;;;;;5069496;28;20395;-74
2023/11/18 04:06:18;;;;;;;45.72;27.15;;;5.40;87.80;;;;;;5070740;28;20388;-72
2023/11/18 04:08:46;;;;;;;44.35;26.52;;;5.40;85.50;;;;;;5070706;28;20407;-71
2023/11/18 04:11:13;;;;;;;46.92;28.33;;;5.40;86.50;;;;;;5070565;28;20442;-71
2023/11/18 04:13:40;;;;;;;49.10;28.05;;;5.50;88.90;;;;;;5070761;28;20392;-72
2023/11/18 04:16:06;;;;;;;49.35;29.50;;;5.40;87.20;;;;;;5070594;28;20384;-70
2023/11/18 04:18:31;;;;;;;44.25;26.67;;;5.40;87.50;;;;;;5070275;28;20912;-71
2023/11/18 04:20:58;;;;;;;42.63;26.00;;;5.30;87.90;;;;;;5070508;28;20384;-72
2023/11/18 04:23:23;;;;;;;42.83;26.02;;;5.30;88.00;;;;;;5071043;28;20387;-72
2023/11/18 04:25:49;;;;;;;47.05;28.80;;;5.20;90.10;;;;;;5070470;28;20386;-71
2023/11/18 04:28:15;;;;;;;43.75;27.80;;;5.20;91.50;;;;;;5070400;28;20741;-72
2023/11/18 04:30:41;;;;;;;45.47;28.08;;;5.10;90.70;;;;;;5069814;28;20391;-72
2023/11/18 04:33:06;;;;;;;53.78;30.00;;;5.20;89.90;;;;;;5068773;28;20391;-69
2023/11/18 04:35:34;;;;;;;44.58;27.83;;;5.20;90.70;;;;;;5070097;28;20415;-71
2023/11/18 04:38:00;;;;;;;46.95;28.08;;;5.20;88.50;;;;;;5069672;28;20503;-71
2023/11/18 04:40:25;;;;;;;47.70;28.30;;;5.10;90.90;;;;;;5070057;28;20521;-74
2023/11/18 04:42:51;;;;;;;46.27;27.87;;;5.10;91.00;;;;;;5070113;28;20509;-71
2023/11/18 04:45:16;;;;;;;46.50;28.03;;;5.10;90.20;;;;;;5070208;28;20379;-71
2023/11/18 04:47:43;;;;;;;48.22;29.92;;;5.10;91.20;;;;;;5070291;28;20380;-70
2023/11/18 04:50:10;;;;;;;48.53;29.08;;;5.10;91.70;;;;;;5068689;28;20392;-69
2023/11/18 04:52:36;;;;;;;47.15;28.35;;;5.10;92.90;;;;;;5070536;28;20384;-70
2023/11/18 04:55:03;;;;;;;49.72;29.98;;;5.10;92.00;;;;;;5070357;28;20407;-72
2023/11/18 04:57:28;;;;;;;49.95;29.40;;;5.10;95.00;;;;;;5070148;28;20475;-71
2023/11/18 04:59:54;;;;;;;47.40;27.83;;;5.10;93.90;;;;;;5070046;28;20902;-72
2023/11/18 05:02:20;;;;;;;50.87;29.30;;;5.00;94.70;;;;;;5070200;28;20387;-71
2023/11/18 05:04:45;;;;;;;45.78;27.95;;;5.10;94.40;;;;;;5070208;28;20387;-72
2023/11/18 05:07:11;;;;;;;48.00;28.88;;;5.10;94.90;;;;;;5069985;28;20436;-73
2023/11/18 05:09:37;;;;;;;51.03;29.25;;;5.10;94.70;;;;;;5068571;28;20525;-70
2023/11/18 05:12:03;;;;;;;48.42;29.45;;;5.10;94.60;;;;;;5069800;28;20418;-71
2023/11/18 05:14:28;;;;;;;47.15;28.65;;;5.10;94.50;;;;;;5070232;28;20841;-70
2023/11/18 05:16:54;;;;;;;47.95;28.33;;;5.00;94.50;;;;;;5069637;28;20404;-73
2023/11/18 05:19:20;;;;;;;49.05;29.20;;;5.00;93.30;;;;;;5069751;28;20893;-72
2023/11/18 05:21:49;;;;;;;47.90;28.70;;;5.00;94.30;;;;;;5069975;28;20391;-72
2023/11/18 05:24:15;;;;;;;43.35;26.80;;;5.00;94.30;;;;;;5069702;28;20381;-71
2023/11/18 05:26:40;;;;;;;48.67;29.65;;;5.00;94.60;;;;;;5068295;28;20781;-71
2023/11/18 05:29:06;;;;;;;48.03;27.93;;;5.00;95.10;;;;;;5069380;28;20437;-71
2023/11/18 05:31:33;;;;;;;45.85;27.50;;;5.00;95.40;;;;;;5068067;28;20429;-71
2023/11/18 05:33:59;;;;;;;45.03;28.00;;;5.00;95.60;;;;;;5069594;28;20379;-72
2023/11/18 05:36:27;;;;;;;42.42;27.50;;;5.10;96.60;;;;;;5069716;28;20380;-72
2023/11/18 05:38:54;;;;;;;46.97;27.75;;;5.10;94.60;;;;;;5069465;28;20421;-71
2023/11/18 05:41:27;;;;;;;45.10;26.38;;;5.20;93.20;;;;;;5068061;28;20754;-70
2023/11/18 05:43:59;;;;;;;42.72;27.08;;;5.20;92.10;;;;;;5069422;28;20711;-72
2023/11/18 05:46:26;;;;;;;44.25;26.70;;;5.30;92.60;;;;;;5068036;28;20388;-71
2023/11/18 05:48:52;;;;;;;50.13;28.30;;;5.20;90.60;;;;;;5069347;28;20478;-70
2023/11/18 05:51:23;;;;;;;43.47;26.90;;;5.30;93.00;;;;;;5071471;28;20427;-74
2023/11/18 05:53:49;;;;;;;41.55;25.67;;;5.40;92.00;;;;;;5073255;28;20376;-72
2023/11/18 05:56:18;;;;;;;44.38;26.55;;;5.40;91.60;;;;;;5072931;28;20411;-70
2023/11/18 05:58:43;;;;;;;43.67;26.75;;;5.40;90.50;;;;;;5072570;28;20404;-71
2023/11/18 06:01:10;;;;;;;43.10;26.08;;;5.50;88.70;;;;;;5072645;28;20471;-71
2023/11/18 06:03:38;;;;;;;45.83;27.55;;;5.50;88.20;;;;;;5071501;28;20399;-73
2023/11/18 06:06:16;;;;;;;45.38;27.42;;;5.50;89.60;;;;;;5072999;28;20507;-71
2023/11/18 06:08:42;;;;;;;43.70;26.33;;;5.50;89.30;;;;;;5074003;28;20478;-71
2023/11/18 06:11:15;;;;;;;44.35;25.88;;;5.60;88.40;;;;;;5082769;28;20492;-74
2023/11/18 06:13:42;;;;;;;41.25;25.30;;;5.60;88.70;;;;;;5077526;28;20384;-74
2023/11/18 06:16:21;;;;;;;44.30;26.13;;;5.60;88.80;;;;;;5073552;28;20418;-71
2023/11/18 06:18:48;;;;;;;44.57;27.07;;;5.60;87.60;;;;;;5073727;28;20422;-72
2023/11/18 06:21:16;;;;;;;41.50;25.20;;;5.60;89.10;;;;;;5076311;28;20731;-72
2023/11/18 06:23:42;;;;;;;43.63;26.77;;;5.60;87.70;;;;;;5073994;28;20407;-71
2023/11/18 06:26:11;;;;;;;45.03;26.05;;;5.60;87.70;;;;;;5072640;28;20477;-71
2023/11/18 06:28:44;;;;;;;42.92;26.40;;;5.60;87.60;;;;;;5072449;28;20383;-71
2023/11/18 06:31:11;;;;;;;41.35;26.23;;;5.70;86.40;;;;;;5071355;28;20878;-71
2023/11/18 06:33:37;;;;;;;46.28;26.83;;;5.80;87.40;;;;;;5072664;28;20888;-72
2023/11/18 06:36:05;;;;;;;43.00;26.00;;;5.80;87.60;;;;;;5072631;28;20896;-71
2023/11/18 06:38:30;;;;;;;42.65;27.23;;;5.80;85.20;;;;;;5072210;28;20439;-71
2023/11/18 06:40:58;;;;;;;41.15;26.15;;;5.80;85.30;;;;;;5072094;28;20376;-71
2023/11/18 06:43:24;;;;;;;39.63;25.70;;;5.80;85.10;;;;;;5072285;28;20455;-71
2023/11/18 06:45:50;;;;;;;44.28;27.75;;;5.90;83.60;;;;;;5072292;28;20817;-73
2023/11/18 06:48:19;;;;;;;42.67;26.88;;;5.90;84.60;;;;;;5072521;28;20392;-72
2023/11/18 06:50:46;;;;;;;42.75;26.17;;;5.80;84.80;;;;;;5072536;28;20723;-73
2023/11/18 06:53:11;;;;;;;46.38;27.45;;;5.90;85.20;;;;;;5072257;28;20387;-72
2023/11/18 06:55:37;;;;;;;42.22;26.55;;;5.90;85.50;;;;;;5072233;28;20417;-73
2023/11/18 06:58:03;;;;;;;42.38;25.73;;;5.90;86.00;;;;;;5072841;28;20770;-71
2023/11/18 07:00:29;;;;;;;45.07;26.93;;;5.90;86.60;;;;;;5071994;28;20693;-71
2023/11/18 07:02:55;;;;;;;40.33;24.35;;;5.90;85.20;;;;;;5070518;28;20384;-72
2023/11/18 07:05:23;;;;;;;42.15;26.48;;;6.00;85.30;;;;;;5071907;28;20387;-71
2023/11/18 07:07:50;;;;;;;40.85;26.63;;;6.10;85.40;;;;;;5072008;28;20380;-74
2023/11/18 07:10:20;;;;;;;39.35;24.50;;;6.00;85.10;;;;;;5072921;28;20794;-73
2023/11/18 07:12:47;;;;;;;40.90;25.30;;;6.00;84.90;;;;;;5073747;28;20391;-72
2023/11/18 07:15:13;;;;;;;40.42;25.48;;;6.20;83.80;;;;;;5073623;28;20509;-72
2023/11/18 07:17:39;;;;;;;41.20;25.48;;;6.20;81.40;;;;;;5073949;28;20404;-71
2023/11/18 07:20:05;;;;;;;41.17;25.57;;;6.20;82.40;;;;;;5071138;28;20384;-72
2023/11/18 07:22:31;;;;;;;40.08;25.50;;;6.30;80.20;;;;;;5072037;28;20889;-71
2023/11/18 07:24:57;;;;;;;39.57;25.40;;;6.30;80.60;;;;;;5071553;28;20380;-70
2023/11/18 07:27:23;;;;;;;40.35;24.48;;;6.30;82.50;;;;;;5071930;28;20512;-70
2023/11/18 07:29:48;;;;;;;39.53;24.20;;;6.30;82.50;;;;;;5071253;28;20383;-73
2023/11/18 07:32:14;;;;;;;37.80;24.13;;;6.30;84.40;;;;;;5071980;28;20402;-71
2023/11/18 07:34:41;;;;;;;36.60;23.83;;;6.40;81.70;;;;;;5071233;28;20409;-70
2023/11/18 07:37:08;;;;;;;39.63;24.77;;;6.40;82.60;;;;;;5070844;28;20403;-71
2023/11/18 07:39:48;;;;;;;38.53;24.80;;;6.50;81.90;;;;;;5070853;28;20380;-71
2023/11/18 07:42:15;;;;;;;38.33;25.53;;;6.50;80.00;;;;;;5069868;28;20835;-71
2023/11/18 07:44:40;;;;;;;41.08;24.50;;;6.50;81.70;;;;;;5071082;28;20387;-71
2023/11/18 07:47:06;;;;;;;39.92;26.30;;;6.50;81.10;;;;;;5072738;28;20388;-74
2023/11/18 07:49:35;;;;;;;40.83;23.92;;;6.50;82.00;;;;;;5069386;28;20801;-74
2023/11/18 07:52:01;;;;;;;36.55;24.48;;;6.70;81.60;;;;;;5071333;28;20535;-71
2023/11/18 07:54:30;;;;;;;37.13;24.17;;;6.60;80.10;;;;;;5071691;28;20375;-71
2023/11/18 07:56:57;;;;;;;38.35;24.27;;;6.60;79.70;;;;;;5069920;28;20910;-72
2023/11/18 07:59:24;;;;;;;34.70;23.27;;;6.70;78.80;;;;;;5068654;28;21301;-72
2023/11/18 08:01:50;;;;;;;34.20;23.20;;;6.80;78.50;;;;;;5071660;28;20427;-72
2023/11/18 08:04:17;;;;;;;34.42;22.27;;;6.70;78.80;;;;;;5071362;28;20757;-72
2023/11/18 08:06:43;;;;;;;35.78;22.63;;;6.70;79.60;;;;;;5069849;28;20848;-73
2023/11/18 08:09:12;;;;;;;33.87;21.87;;;6.80;80.60;;;;;;5071115;28;20413;-73
2023/11/18 08:11:41;;;;;;;38.88;23.42;;;6.80;79.10;;;;;;5094945;22;20456;-71
2023/11/18 08:14:09;;;;;;;34.55;21.60;;;6.90;78.30;;;;;;5090687;28;20390;-70
2023/11/18 08:16:35;;;;;;;34.75;21.10;;;6.90;78.40;;;;;;5089710;28;20811;-72
2023/11/18 08:19:07;;;;;;;30.13;20.38;;;7.00;75.90;;;;;;5090877;28;20803;-70
2023/11/18 08:21:37;;;;;;;32.47;20.90;;;7.10;75.10;;;;;;5090831;28;20438;-71
2023/11/18 08:24:05;;;;;;;36.20;21.70;;;7.10;74.60;;;;;;5091108;28;20450;-71
2023/11/18 08:26:31;;;;;;;32.92;19.80;;;7.10;74.10;;;;;;5091518;28;20384;-71
2023/11/18 08:28:56;;;;;;;32.70;19.50;;;7.10;74.90;;;;;;5090885;28;20988;-72
2023/11/18 08:31:34;;;;;;;;;;;;;;;;;;;;;
2023/11/18 08:34:00;;;;;;;35.42;18.98;;;7.30;73.80;;;;;;5080313;28;20953;-70
2023/11/18 08:36:27;;;;;;;31.27;18.70;;;7.20;72.50;;;;;;5090759;28;20477;-70
2023/11/18 08:38:53;;;;;;;28.40;17.30;;;7.30;72.00;;;;;;5090286;28;20433;-70
2023/11/18 08:41:19;;;;;;;29.05;17.85;;;7.50;72.60;;;;;;5090732;28;20891;-71
2023/11/18 08:43:48;;;;;;;32.08;18.13;;;7.50;73.00;;;;;;5090680;28;20386;-70
2023/11/18 08:46:13;;;;;;;26.73;17.27;;;7.50;70.60;;;;;;5090851;28;20743;-72
2023/11/18 08:48:39;;;;;;;27.20;16.10;;;7.50;69.90;;;;;;5090877;28;20378;-72
2023/11/18 08:51:07;;;;;;;25.77;15.70;;;7.60;71.60;;;;;;5090661;28;20466;-71
2023/11/18 08:53:40;;;;;;;27.70;16.33;;;7.70;70.10;;;;;;5090335;28;20389;-71
2023/11/18 08:56:15;;;;;;;25.88;16.25;;;7.70;69.00;;;;;;5091266;28;20389;-70
2023/11/18 08:58:49;;;;;;;27.45;16.20;;;7.70;67.50;;;;;;5090350;28;20482;-70
2023/11/18 09:01:15;;;;;;;23.65;15.35;;;7.80;65.80;;;;;;5076237;28;20761;-72
2023/11/18 09:03:52;;;;;;;25.47;15.40;;;7.80;67.80;;;;;;5076773;28;20387;-71
2023/11/18 09:06:17;;;;;;;26.05;15.07;;;7.90;66.90;;;;;;5074996;28;20407;-71
2023/11/18 09:08:45;;;;;;;22.45;14.00;;;8.00;65.20;;;;;;5077148;28;20874;-70
2023/11/18 09:11:16;;;;;;;26.55;14.45;;;8.00;64.20;;;;;;5070532;28;20411;-69
2023/11/18 09:13:53;;;;;;;25.55;13.88;;;8.00;65.60;;;;;;5089461;28;20390;-70
2023/11/18 09:16:25;;;;;;;24.83;14.07;;;8.10;66.70;;;;;;5095062;28;20692;-71
2023/11/18 09:18:51;;;;;;;24.65;13.93;;;8.20;65.40;;;;;;5089505;28;20412;-71
2023/11/18 09:21:23;;;;;;;22.65;13.57;;;8.30;64.00;;;;;;5093940;28;20393;-71
2023/11/18 09:23:49;;;;;;;22.43;12.57;;;8.30;64.30;;;;;;5089423;28;20376;-71
2023/11/18 09:26:16;;;;;;;23.10;13.77;;;8.30;63.50;;;;;;5078725;28;20467;-70
2023/11/18 09:28:42;;;;;;;23.25;14.02;;;8.30;62.50;;;;;;5093852;28;20417;-71
2023/11/18 09:31:14;;;;;;;21.42;13.10;;;8.20;64.80;;;;;;5089363;28;20423;-72
2023/11/18 09:33:51;;;;;;;22.25;13.02;;;8.30;63.00;;;;;;5082853;28;20394;-72
2023/11/18 09:36:18;;;;;;;25.42;13.40;;;8.30;63.70;;;;;;5090279;28;20382;-70
2023/11/18 09:38:47;;;;;;;20.92;12.65;;;8.40;62.20;;;;;;5092110;28;20855;-70
2023/11/18 09:41:13;;;;;;;22.38;13.38;;;8.40;62.40;;;;;;5091683;28;20488;-70
2023/11/18 09:43:47;;;;;;;22.80;13.45;;;8.50;62.90;;;;;;5090742;28;20772;-71
2023/11/18 09:46:32;;;;;;;19.50;12.18;;;8.50;62.60;;;;;;5091310;28;20404;-70
2023/11/18 09:49:33;;;;;;;18.48;11.77;;;8.60;60.30;;;;;;5090105;28;20390;-70
2023/11/18 09:52:04;;;;;;;17.17;11.20;;;8.60;62.60;;;;;;5072111;28;20462;-70
2023/11/18 09:54:41;;;;;;;25.50;11.90;;;8.70;60.70;;;;;;5079996;28;20383;-70
2023/11/18 09:57:29;;;;;;;19.35;11.80;;;8.70;59.60;;;;;;5079434;28;20404;-70
2023/11/18 10:00:19;;;;;;;19.38;11.90;;;8.60;60.90;;;;;;5091432;28;20381;-70
2023/11/18 10:02:46;;;;;;;22.90;11.93;;;8.50;61.90;;;;;;5091238;28;20860;-70
2023/11/18 10:05:13;;;;;;;18.70;11.50;;;8.60;61.80;;;;;;5090955;28;20939;-71
2023/11/18 10:07:41;;;;;;;19.90;12.00;;;8.70;60.80;;;;;;5091527;28;20473;-70
2023/11/18 10:10:16;;;;;;;23.67;12.30;;;8.80;61.30;;;;;;5082746;28;20384;-70
2023/11/18 10:12:56;;;;;;;21.67;11.38;;;8.90;60.40;;;;;;5071376;28;20380;-71
2023/11/18 10:15:23;;;;;;;20.55;13.10;;;8.90;59.20;;;;;;5070913;28;20391;-71
2023/11/18 10:17:59;;;;;;;20.00;11.63;;;9.10;60.00;;;;;;5070964;28;20404;-71
2023/11/18 10:20:46;;;;;;;21.05;12.15;;;9.00;57.90;;;;;;5074398;28;20406;-71
2023/11/18 10:23:19;;;;;;;17.42;10.95;;;9.10;60.10;;;;;;5072763;28;20380;-71
2023/11/18 10:25:50;;;;;;;25.02;11.85;;;9.10;57.90;;;;;;5071249;28;20440;-70
2023/11/18 10:28:29;;;;;;;17.88;10.82;;;9.20;57.90;;;;;;5076492;28;20868;-72
2023/11/18 10:31:05;;;;;;;22.05;12.27;;;9.10;58.00;;;;;;5080557;28;20395;-72
2023/11/18 10:33:36;;;;;;;17.65;10.98;;;9.20;58.10;;;;;;5069712;28;20457;-72
2023/11/18 10:36:04;;;;;;;19.60;10.82;;;9.10;58.20;;;;;;5068605;28;20466;-71
2023/11/18 10:38:49;;;;;;;17.80;11.30;;;9.20;58.50;;;;;;5085258;28;20406;-71
2023/11/18 10:41:16;;;;;;;16.38;10.10;;;9.40;58.70;;;;;;5089887;28;20401;-70
2023/11/18 10:43:44;;;;;;;20.30;11.60;;;9.30;55.30;;;;;;5082351;28;20430;-71
2023/11/18 10:46:12;;;;;;;20.80;11.10;;;9.30;57.00;;;;;;5073498;28;20808;-70
2023/11/18 10:48:58;;;;;;;15.98;10.52;;;9.30;58.20;;;;;;5072740;28;20485;-70
2023/11/18 10:51:26;;;;;;;21.33;10.52;;;9.30;57.50;;;;;;5089770;28;20405;-72
2023/11/18 10:53:53;;;;;;;21.25;11.60;;;9.20;57.60;;;;;;5090238;28;20823;-71
2023/11/18 10:56:28;;;;;;;23.00;12.17;;;9.20;59.10;;;;;;5090076;28;20794;-71
2023/11/18 10:58:56;;;;;;;28.70;14.57;;;9.20;60.10;;;;;;5073216;28;20396;-70
2023/11/18 11:01:32;;;;;;;27.27;15.02;;;9.20;59.00;;;;;;5069796;28;20382;-71
2023/11/18 11:03:58;;;;;;;26.27;13.18;;;9.30;61.20;;;;;;5069869;28;20383;-71
2023/11/18 11:06:25;;;;;;;22.35;12.65;;;9.30;58.70;;;;;;5069971;28;20371;-71
2023/11/18 11:08:52;;;;;;;20.15;11.50;;;9.30;59.50;;;;;;5069748;28;20429;-70
2023/11/18 11:11:22;;;;;;;25.35;12.43;;;9.30;60.60;;;;;;5070909;28;20396;-71
2023/11/18 11:14:00;;;;;;;26.23;14.50;;;9.40;59.90;;;;;;5069100;28;20386;-71
2023/11/18 11:16:37;;;;;;;24.77;14.57;;;9.40;60.50;;;;;;5070145;28;20410;-70
2023/11/18 11:19:08;;;;;;;22.05;12.57;;;9.30;62.00;;;;;;5070186;28;20782;-70
2023/11/18 11:21:47;;;;;;;21.52;11.90;;;9.30;63.70;;;;;;5070395;28;20878;-71
2023/11/18 11:24:33;;;;;;;24.67;14.18;;;9.20;61.10;;;;;;5071066;28;20522;-72
2023/11/18 11:27:23;;;;;;;30.02;15.95;;;9.30;63.30;;;;;;5076362;28;20732;-72
2023/11/18 11:30:10;;;;;;;23.17;13.93;;;9.30;63.90;;;;;;5090075;28;20477;-71
2023/11/18 11:32:45;;;;;;;25.83;14.85;;;9.20;64.90;;;;;;5074217;28;20414;-72
2023/11/18 11:35:18;;;;;;;22.98;13.15;;;9.20;65.60;;;;;;5083296;28;20378;-72
2023/11/18 11:37:45;;;;;;;30.25;17.25;;;9.30;67.60;;;;;;5094240;28;20780;-72
2023/11/18 11:40:12;;;;;;;22.73;12.70;;;9.30;67.70;;;;;;5088792;28;20511;-72
2023/11/18 11:42:42;;;;;;;27.65;13.27;;;9.30;65.10;;;;;;5090284;28;20370;-70
2023/11/18 11:45:19;;;;;;;27.75;14.40;;;9.40;64.10;;;;;;5092821;28;20477;-71
2023/11/18 11:47:50;;;;;;;30.27;17.95;;;9.30;65.70;;;;;;5093472;28;20390;-71
2023/11/18 11:50:32;;;;;;;32.08;16.30;;;9.30;68.30;;;;;;5093025;28;20402;-72
2023/11/18 11:53:14;;;;;;;21.85;12.45;;;9.40;68.40;;;;;;5095235;28;20394;-71
2023/11/18 11:55:53;;;;;;;21.05;12.55;;;9.40;67.00;;;;;;5094652;28;20386;-72
2023/11/18 11:58:32;;;;;;;20.13;12.82;;;9.30;68.60;;;;;;5096589;28;20410;-73
2023/11/18 12:01:15;;;;;;;24.43;14.93;;;9.40;69.40;;;;;;5096529;28;20807;-73
2023/11/18 12:03:43;;;;;;;23.65;12.98;;;9.40;69.10;;;;;;5094572;28;20876;-73
2023/11/18 12:06:09;;;;;;;21.08;12.23;;;9.50;67.80;;;;;;5094088;28;20861;-72
2023/11/18 12:08:39;;;;;;;22.13;12.82;;;9.40;67.90;;;;;;5092993;28;20405;-70
2023/11/18 12:11:09;;;;;;;20.70;11.68;;;9.40;68.80;;;;;;5093472;28;20386;-72
2023/11/18 12:13:39;;;;;;;21.65;12.70;;;9.30;70.40;;;;;;5093695;28;20405;-69
2023/11/18 12:16:05;;;;;;;23.35;14.18;;;9.40;70.00;;;;;;5093034;28;20374;-73
2023/11/18 12:18:36;;;;;;;18.70;12.20;;;9.40;71.40;;;;;;5093492;28;20402;-73
2023/11/18 12:21:03;;;;;;;21.60;11.80;;;9.40;72.00;;;;;;5093052;28;20432;-70
2023/11/18 12:23:30;;;;;;;25.50;14.27;;;9.30;72.40;;;;;;5091622;28;20428;-71
2023/11/18 12:25:57;;;;;;;20.57;12.80;;;9.30;75.60;;;;;;5092444;28;20396;-74
2023/11/18 12:28:37;;;;;;;23.55;14.23;;;9.10;75.70;;;;;;5095684;28;20455;-74
2023/11/18 12:31:16;;;;;;;21.58;11.75;;;9.20;75.80;;;;;;5092640;28;20459;-75
2023/11/18 12:34:00;;;;;;;21.70;11.73;;;9.10;75.20;;;;;;5092924;28;20708;-74
2023/11/18 12:36:38;;;;;;;17.50;11.60;;;9.10;75.40;;;;;;5081422;28;20393;-74
2023/11/18 12:39:33;;;;;;;20.08;11.15;;;9.20;74.20;;;;;;5090803;28;20382;-74
2023/11/18 12:42:14;;;;;;;19.67;11.40;;;9.10;75.90;;;;;;5087454;28;20435;-73
2023/11/18 12:45:06;;;;;;;21.30;12.87;;;9.10;75.70;;;;;;5088843;28;20408;-71
2023/11/18 12:47:37;;;;;;;21.52;11.98;;;9.10;76.30;;;;;;5088408;28;20374;-72
2023/11/18 12:50:17;;;;;;;22.80;12.90;;;9.10;78.10;;;;;;5085372;28;20389;-73